sensor_id;sensor_type;location;lat;lon;timestamp;pressure;altitude;pressure_sealevel;temperature;humidity
31403;BME280;18039;52.188;21.024;2022-12-11T00:00:51;77338.94;;;-141.45;100.00
31403;BME280;18039;52.188;21.024;2022-12-11T00:03:38;77332.88;;;-141.45;100.00
31403;BME280;18039;52.188;21.024;2022-12-11T00:06:10;77334.91;;;-141.45;100.00
31403;BME280;18039;52.188;21.024;2022-12-11T00:08:38;77338.94;;;-141.45;99.96
31403;BME280;18039;52.188;21.024;2022-12-11T00:11:11;77347.06;;;-141.45;99.93
31403;BME280;18039;52.188;21.024;2022-12-11T00:13:39;77351.13;;;-141.45;100.00
31403;BME280;18039;52.188;21.024;2022-12-11T00:16:06;77351.13;;;-141.45;100.00
31403;BME280;18039;52.188;21.024;2022-12-11T00:18:33;77355.16;;;-141.45;100.00
31403;BME280;18039;52.188;21.024;2022-12-11T00:21:05;77351.13;;;-141.45;100.00
31403;BME280;18039;52.188;21.024;2022-12-11T00:23:36;77355.16;;;-141.45;100.00
31403;BME280;18039;52.188;21.024;2022-12-11T00:26:07;77343.00;;;-141.45;100.00
31403;BME280;18039;52.188;21.024;2022-12-11T00:28:35;77347.06;;;-141.45;100.00
31403;BME280;18039;52.188;21.024;2022-12-11T00:31:07;77391.66;;;-141.45;100.00
31403;BME280;18039;52.188;21.024;2022-12-11T00:33:34;77357.19;;;-141.45;100.00
31403;BME280;18039;52.188;21.024;2022-12-11T00:36:01;77351.13;;;-141.45;100.00
31403;BME280;18039;52.188;21.024;2022-12-11T00:38:29;77355.16;;;-141.45;100.00
31403;BME280;18039;52.188;21.024;2022-12-11T00:40:57;77355.16;;;-141.45;100.00
31403;BME280;18039;52.188;21.024;2022-12-11T00:43:25;77355.16;;;-141.45;100.00
31403;BME280;18039;52.188;21.024;2022-12-11T00:45:52;77355.16;;;-141.45;100.00
31403;BME280;18039;52.188;21.024;2022-12-11T00:48:19;77351.13;;;-141.45;100.00
31403;BME280;18039;52.188;21.024;2022-12-11T00:50:46;77347.06;;;-141.45;100.00
31403;BME280;18039;52.188;21.024;2022-12-11T00:53:13;77351.13;;;-141.45;100.00
31403;BME280;18039;52.188;21.024;2022-12-11T00:55:41;77355.16;;;-141.45;100.00
31403;BME280;18039;52.188;21.024;2022-12-11T00:58:10;77355.16;;;-141.45;100.00
31403;BME280;18039;52.188;21.024;2022-12-11T01:00:39;77359.22;;;-141.45;100.00
31403;BME280;18039;52.188;21.024;2022-12-11T01:03:06;77365.31;;;-141.45;100.00
31403;BME280;18039;52.188;21.024;2022-12-11T01:05:34;77371.38;;;-141.45;100.00
31403;BME280;18039;52.188;21.024;2022-12-11T01:08:02;77375.44;;;-141.45;100.00
31403;BME280;18039;52.188;21.024;2022-12-11T01:10:29;77369.38;;;-141.45;100.00
31403;BME280;18039;52.188;21.024;2022-12-11T01:13:01;77387.59;;;-141.45;100.00
31403;BME280;18039;52.188;21.024;2022-12-11T01:15:30;77375.44;;;-141.45;100.00
31403;BME280;18039;52.188;21.024;2022-12-11T01:17:57;77383.56;;;-141.45;100.00
31403;BME280;18039;52.188;21.024;2022-12-11T01:20:26;77379.50;;;-141.45;100.00
31403;BME280;18039;52.188;21.024;2022-12-11T01:22:55;77381.53;;;-141.45;100.00
31403;BME280;18039;52.188;21.024;2022-12-11T01:25:23;77377.47;;;-141.45;100.00
31403;BME280;18039;52.188;21.024;2022-12-11T01:27:52;77371.38;;;-141.45;100.00
31403;BME280;18039;52.188;21.024;2022-12-11T01:30:21;77379.50;;;-141.45;99.96
31403;BME280;18039;52.188;21.024;2022-12-11T01:32:49;77371.38;;;-141.45;100.00
31403;BME280;18039;52.188;21.024;2022-12-11T01:35:17;77371.38;;;-141.45;100.00
31403;BME280;18039;52.188;21.024;2022-12-11T01:37:44;77367.34;;;-141.45;100.00
31403;BME280;18039;52.188;21.024;2022-12-11T01:40:17;77369.38;;;-141.45;100.00
31403;BME280;18039;52.188;21.024;2022-12-11T01:42:44;77367.34;;;-141.45;100.00
31403;BME280;18039;52.188;21.024;2022-12-11T01:47:56;77375.44;;;-141.45;100.00
31403;BME280;18039;52.188;21.024;2022-12-11T01:50:27;77367.34;;;-141.45;100.00
31403;BME280;18039;52.188;21.024;2022-12-11T01:52:55;77375.44;;;-141.45;100.00
31403;BME280;18039;52.188;21.024;2022-12-11T01:55:22;77375.44;;;-141.45;100.00
31403;BME280;18039;52.188;21.024;2022-12-11T01:57:50;77379.50;;;-141.45;100.00
31403;BME280;18039;52.188;21.024;2022-12-11T02:00:18;77379.50;;;-141.45;100.00
31403;BME280;18039;52.188;21.024;2022-12-11T02:02:45;77381.53;;;-141.45;100.00
31403;BME280;18039;52.188;21.024;2022-12-11T02:05:12;77387.59;;;-141.45;100.00
31403;BME280;18039;52.188;21.024;2022-12-11T02:07:43;77371.38;;;-141.45;100.00
31403;BME280;18039;52.188;21.024;2022-12-11T02:10:12;77373.41;;;-141.45;100.00
31403;BME280;18039;52.188;21.024;2022-12-11T02:12:58;77379.50;;;-141.45;100.00
31403;BME280;18039;52.188;21.024;2022-12-11T02:15:33;77381.53;;;-141.45;100.00
31403;BME280;18039;52.188;21.024;2022-12-11T02:18:05;77375.44;;;-141.45;100.00
31403;BME280;18039;52.188;21.024;2022-12-11T02:20:38;77375.44;;;-141.45;100.00
31403;BME280;18039;52.188;21.024;2022-12-11T02:26:11;77371.38;;;-141.45;100.00
31403;BME280;18039;52.188;21.024;2022-12-11T02:28:48;77379.50;;;-141.45;100.00
31403;BME280;18039;52.188;21.024;2022-12-11T02:31:31;77379.50;;;-141.45;100.00
31403;BME280;18039;52.188;21.024;2022-12-11T02:34:09;77387.59;;;-141.45;100.00
31403;BME280;18039;52.188;21.024;2022-12-11T02:36:41;77381.53;;;-141.45;100.00
31403;BME280;18039;52.188;21.024;2022-12-11T02:39:11;77381.53;;;-141.45;100.00
31403;BME280;18039;52.188;21.024;2022-12-11T02:41:43;77387.59;;;-141.45;100.00
31403;BME280;18039;52.188;21.024;2022-12-11T02:44:15;77478.84;;;-141.45;100.00
31403;BME280;18039;52.188;21.024;2022-12-11T02:46:44;77395.72;;;-141.45;100.00
31403;BME280;18039;52.188;21.024;2022-12-11T02:49:12;77391.66;;;-141.45;100.00
31403;BME280;18039;52.188;21.024;2022-12-11T02:51:41;77389.63;;;-141.45;100.00
31403;BME280;18039;52.188;21.024;2022-12-11T02:54:18;77381.53;;;-141.45;100.00
31403;BME280;18039;52.188;21.024;2022-12-11T02:56:53;77387.59;;;-141.45;100.00
31403;BME280;18039;52.188;21.024;2022-12-11T02:59:30;77393.69;;;-141.45;100.00
31403;BME280;18039;52.188;21.024;2022-12-11T03:01:58;77395.72;;;-141.45;100.00
31403;BME280;18039;52.188;21.024;2022-12-11T03:04:27;77393.69;;;-141.45;100.00
31403;BME280;18039;52.188;21.024;2022-12-11T03:06:57;77387.59;;;-141.45;100.00
31403;BME280;18039;52.188;21.024;2022-12-11T03:09:27;77385.59;;;-141.45;100.00
31403;BME280;18039;52.188;21.024;2022-12-11T03:11:54;77387.59;;;-141.45;100.00
31403;BME280;18039;52.188;21.024;2022-12-11T03:14:21;77391.66;;;-141.45;100.00
31403;BME280;18039;52.188;21.024;2022-12-11T03:16:58;77383.56;;;-141.45;100.00
31403;BME280;18039;52.188;21.024;2022-12-11T03:19:37;77387.59;;;-141.45;99.51
31403;BME280;18039;52.188;21.024;2022-12-11T03:24:59;77391.66;;;-141.45;99.59
31403;BME280;18039;52.188;21.024;2022-12-11T03:27:39;77391.66;;;-141.45;99.91
31403;BME280;18039;52.188;21.024;2022-12-11T03:30:17;77391.66;;;-141.45;99.55
31403;BME280;18039;52.188;21.024;2022-12-11T03:33:04;77387.59;;;-141.45;99.17
31403;BME280;18039;52.188;21.024;2022-12-11T03:35:36;77391.66;;;-141.45;99.03
31403;BME280;18039;52.188;21.024;2022-12-11T03:38:09;77397.75;;;-141.45;99.13
31403;BME280;18039;52.188;21.024;2022-12-11T03:40:39;77387.59;;;-141.45;98.90
31403;BME280;18039;52.188;21.024;2022-12-11T03:43:09;77395.72;;;-141.45;98.84
31403;BME280;18039;52.188;21.024;2022-12-11T03:45:38;77399.78;;;-141.45;98.49
31403;BME280;18039;52.188;21.024;2022-12-11T03:48:08;77399.78;;;-141.45;98.09
31403;BME280;18039;52.188;21.024;2022-12-11T03:50:36;77403.84;;;-141.45;98.11
31403;BME280;18039;52.188;21.024;2022-12-11T03:53:04;77407.88;;;-141.45;98.50
31403;BME280;18039;52.188;21.024;2022-12-11T03:55:32;77407.88;;;-141.45;98.62
31403;BME280;18039;52.188;21.024;2022-12-11T03:58:00;77416.00;;;-141.45;98.24
31403;BME280;18039;52.188;21.024;2022-12-11T04:00:27;77407.88;;;-141.45;98.53
31403;BME280;18039;52.188;21.024;2022-12-11T04:02:55;77407.88;;;-141.45;98.74
31403;BME280;18039;52.188;21.024;2022-12-11T04:05:58;77407.88;;;-141.45;98.73
31403;BME280;18039;52.188;21.024;2022-12-11T04:08:26;77399.78;;;-141.45;98.45
31403;BME280;18039;52.188;21.024;2022-12-11T04:10:53;77399.78;;;-141.45;98.52
31403;BME280;18039;52.188;21.024;2022-12-11T04:13:40;77403.84;;;-141.45;98.65
31403;BME280;18039;52.188;21.024;2022-12-11T04:16:08;77397.75;;;-141.45;98.38
31403;BME280;18039;52.188;21.024;2022-12-11T04:18:35;77407.88;;;-141.45;98.46
31403;BME280;18039;52.188;21.024;2022-12-11T04:21:21;77391.66;;;-141.45;98.70
31403;BME280;18039;52.188;21.024;2022-12-11T04:24:06;77407.88;;;-141.45;98.20
31403;BME280;18039;52.188;21.024;2022-12-11T04:26:43;77399.78;;;-141.45;97.88
31403;BME280;18039;52.188;21.024;2022-12-11T04:29:12;77407.88;;;-141.45;98.21
31403;BME280;18039;52.188;21.024;2022-12-11T04:31:39;77401.81;;;-141.45;97.89
31403;BME280;18039;52.188;21.024;2022-12-11T04:34:06;77405.84;;;-141.45;98.37
31403;BME280;18039;52.188;21.024;2022-12-11T04:36:33;77399.78;;;-141.45;98.37
31403;BME280;18039;52.188;21.024;2022-12-11T04:39:00;77395.72;;;-141.45;98.09
31403;BME280;18039;52.188;21.024;2022-12-11T04:41:27;77389.63;;;-141.45;98.39
31403;BME280;18039;52.188;21.024;2022-12-11T04:43:54;77391.66;;;-141.45;98.16
31403;BME280;18039;52.188;21.024;2022-12-11T04:46:22;77395.72;;;-141.45;98.01
31403;BME280;18039;52.188;21.024;2022-12-11T04:48:51;77387.59;;;-141.45;98.22
31403;BME280;18039;52.188;21.024;2022-12-11T04:51:24;77391.66;;;-141.45;97.99
31403;BME280;18039;52.188;21.024;2022-12-11T04:53:51;77385.59;;;-141.45;97.97
31403;BME280;18039;52.188;21.024;2022-12-11T04:56:18;77383.56;;;-141.45;97.79
31403;BME280;18039;52.188;21.024;2022-12-11T04:58:46;77387.59;;;-141.45;97.53
31403;BME280;18039;52.188;21.024;2022-12-11T05:01:16;77375.44;;;-141.45;97.95
31403;BME280;18039;52.188;21.024;2022-12-11T05:03:45;77379.50;;;-141.45;97.70
31403;BME280;18039;52.188;21.024;2022-12-11T05:06:13;77367.34;;;-141.45;96.94
31403;BME280;18039;52.188;21.024;2022-12-11T05:08:41;77375.44;;;-141.45;97.38
31403;BME280;18039;52.188;21.024;2022-12-11T05:11:11;77379.50;;;-141.45;97.55
31403;BME280;18039;52.188;21.024;2022-12-11T05:13:39;77389.63;;;-141.45;97.87
31403;BME280;18039;52.188;21.024;2022-12-11T05:16:11;77383.56;;;-141.45;97.97
31403;BME280;18039;52.188;21.024;2022-12-11T05:18:38;77371.38;;;-141.45;98.18
31403;BME280;18039;52.188;21.024;2022-12-11T05:21:08;77371.38;;;-141.45;98.43
31403;BME280;18039;52.188;21.024;2022-12-11T05:23:36;77371.38;;;-141.45;98.49
31403;BME280;18039;52.188;21.024;2022-12-11T05:26:15;77363.28;;;-141.45;98.92
31403;BME280;18039;52.188;21.024;2022-12-11T05:28:44;77367.34;;;-141.45;98.96
31403;BME280;18039;52.188;21.024;2022-12-11T05:31:18;77361.25;;;-141.45;98.84
31403;BME280;18039;52.188;21.024;2022-12-11T05:33:46;77367.34;;;-141.45;98.22
31403;BME280;18039;52.188;21.024;2022-12-11T05:36:20;77367.34;;;-141.45;98.13
31403;BME280;18039;52.188;21.024;2022-12-11T05:38:48;77367.34;;;-141.45;98.17
31403;BME280;18039;52.188;21.024;2022-12-11T05:41:18;77367.34;;;-141.45;97.98
31403;BME280;18039;52.188;21.024;2022-12-11T05:43:46;77371.38;;;-141.45;98.22
31403;BME280;18039;52.188;21.024;2022-12-11T05:46:23;77367.34;;;-141.45;98.40
31403;BME280;18039;52.188;21.024;2022-12-11T05:48:54;77359.22;;;-141.45;98.20
31403;BME280;18039;52.188;21.024;2022-12-11T05:51:22;77359.22;;;-141.45;97.92
31403;BME280;18039;52.188;21.024;2022-12-11T05:53:51;77367.34;;;-141.45;98.55
31403;BME280;18039;52.188;21.024;2022-12-11T05:56:21;77363.28;;;-141.45;98.28
31403;BME280;18039;52.188;21.024;2022-12-11T05:58:49;77359.22;;;-141.45;98.74
31403;BME280;18039;52.188;21.024;2022-12-11T06:01:37;77365.31;;;-141.45;98.44
31403;BME280;18039;52.188;21.024;2022-12-11T06:04:07;77371.38;;;-141.45;98.27
31403;BME280;18039;52.188;21.024;2022-12-11T06:06:35;77363.28;;;-141.45;98.30
31403;BME280;18039;52.188;21.024;2022-12-11T06:09:04;77367.34;;;-141.45;97.67
31403;BME280;18039;52.188;21.024;2022-12-11T06:11:32;77375.44;;;-141.45;97.53
31403;BME280;18039;52.188;21.024;2022-12-11T06:14:01;77383.56;;;-141.45;97.69
31403;BME280;18039;52.188;21.024;2022-12-11T06:16:29;77383.56;;;-141.45;97.21
31403;BME280;18039;52.188;21.024;2022-12-11T06:18:57;77391.66;;;-141.45;96.97
31403;BME280;18039;52.188;21.024;2022-12-11T06:21:29;77391.66;;;-141.45;96.93
31403;BME280;18039;52.188;21.024;2022-12-11T06:23:59;77403.84;;;-141.45;97.18
31403;BME280;18039;52.188;21.024;2022-12-11T06:26:26;77403.84;;;-141.45;96.92
31403;BME280;18039;52.188;21.024;2022-12-11T06:28:54;77407.88;;;-141.45;97.34
31403;BME280;18039;52.188;21.024;2022-12-11T06:31:21;77399.78;;;-141.45;97.21
31403;BME280;18039;52.188;21.024;2022-12-11T06:33:48;77407.88;;;-141.45;97.95
31403;BME280;18039;52.188;21.024;2022-12-11T06:36:19;77399.78;;;-141.45;98.24
31403;BME280;18039;52.188;21.024;2022-12-11T06:38:47;77391.66;;;-141.45;97.76
31403;BME280;18039;52.188;21.024;2022-12-11T06:41:15;77391.66;;;-141.45;97.68
31403;BME280;18039;52.188;21.024;2022-12-11T06:43:42;77387.59;;;-141.45;97.74
31403;BME280;18039;52.188;21.024;2022-12-11T06:46:12;77395.72;;;-141.45;97.08
31403;BME280;18039;52.188;21.024;2022-12-11T06:48:40;77395.72;;;-141.45;97.28
31403;BME280;18039;52.188;21.024;2022-12-11T06:51:10;77401.81;;;-141.45;96.71
31403;BME280;18039;52.188;21.024;2022-12-11T06:53:38;77403.84;;;-141.45;96.72
31403;BME280;18039;52.188;21.024;2022-12-11T06:56:08;77403.84;;;-141.45;96.86
31403;BME280;18039;52.188;21.024;2022-12-11T06:58:37;77403.84;;;-141.45;96.92
31403;BME280;18039;52.188;21.024;2022-12-11T07:01:16;77391.66;;;-141.45;96.78
31403;BME280;18039;52.188;21.024;2022-12-11T07:03:44;77399.78;;;-141.45;96.45
31403;BME280;18039;52.188;21.024;2022-12-11T07:06:11;77395.72;;;-141.45;96.93
31403;BME280;18039;52.188;21.024;2022-12-11T07:08:39;77403.84;;;-141.45;96.85
31403;BME280;18039;52.188;21.024;2022-12-11T07:11:08;77403.84;;;-141.45;97.33
31403;BME280;18039;52.188;21.024;2022-12-11T07:13:36;77403.84;;;-141.45;97.35
31403;BME280;18039;52.188;21.024;2022-12-11T07:16:03;77401.81;;;-141.45;96.81
31403;BME280;18039;52.188;21.024;2022-12-11T07:18:41;77399.78;;;-141.45;96.64
31403;BME280;18039;52.188;21.024;2022-12-11T07:21:11;77403.84;;;-141.45;96.39
31403;BME280;18039;52.188;21.024;2022-12-11T07:23:39;77397.75;;;-141.45;95.74
31403;BME280;18039;52.188;21.024;2022-12-11T07:26:08;77399.78;;;-141.45;95.08
31403;BME280;18039;52.188;21.024;2022-12-11T07:28:36;77401.81;;;-141.45;95.03
31403;BME280;18039;52.188;21.024;2022-12-11T07:31:08;77403.84;;;-141.45;95.24
31403;BME280;18039;52.188;21.024;2022-12-11T07:33:36;77401.81;;;-141.45;95.16
31403;BME280;18039;52.188;21.024;2022-12-11T07:36:05;77403.84;;;-141.45;95.64
31403;BME280;18039;52.188;21.024;2022-12-11T07:38:33;77403.84;;;-141.45;96.22
31403;BME280;18039;52.188;21.024;2022-12-11T07:41:01;77407.88;;;-141.45;96.63
31403;BME280;18039;52.188;21.024;2022-12-11T07:43:28;77399.78;;;-141.45;96.48
31403;BME280;18039;52.188;21.024;2022-12-11T07:46:00;77411.94;;;-141.45;96.85
31403;BME280;18039;52.188;21.024;2022-12-11T07:48:28;77391.66;;;-141.45;97.01
31403;BME280;18039;52.188;21.024;2022-12-11T07:50:55;77393.69;;;-141.45;97.14
31403;BME280;18039;52.188;21.024;2022-12-11T07:53:22;77391.66;;;-141.45;96.59
31403;BME280;18039;52.188;21.024;2022-12-11T07:55:49;77387.59;;;-141.45;96.78
31403;BME280;18039;52.188;21.024;2022-12-11T07:58:16;77377.47;;;-141.45;96.92
31403;BME280;18039;52.188;21.024;2022-12-11T08:00:43;77383.56;;;-141.45;97.10
31403;BME280;18039;52.188;21.024;2022-12-11T08:03:11;77383.56;;;-141.45;97.08
31403;BME280;18039;52.188;21.024;2022-12-11T08:05:38;77387.59;;;-141.45;96.26
31403;BME280;18039;52.188;21.024;2022-12-11T08:08:05;77395.72;;;-141.45;95.99
31403;BME280;18039;52.188;21.024;2022-12-11T08:10:32;77399.78;;;-141.45;95.32
31403;BME280;18039;52.188;21.024;2022-12-11T08:12:59;77395.72;;;-141.45;95.27
31403;BME280;18039;52.188;21.024;2022-12-11T08:15:26;77391.66;;;-141.45;94.99
31403;BME280;18039;52.188;21.024;2022-12-11T08:17:53;77399.78;;;-141.45;95.68
31403;BME280;18039;52.188;21.024;2022-12-11T08:20:20;77403.84;;;-141.45;95.43
31403;BME280;18039;52.188;21.024;2022-12-11T08:22:47;77395.72;;;-141.45;95.37
31403;BME280;18039;52.188;21.024;2022-12-11T08:25:14;77399.78;;;-141.45;95.63
31403;BME280;18039;52.188;21.024;2022-12-11T08:27:41;77387.59;;;-141.45;95.56
31403;BME280;18039;52.188;21.024;2022-12-11T08:30:09;77387.59;;;-141.45;95.53
31403;BME280;18039;52.188;21.024;2022-12-11T08:32:36;77383.56;;;-141.45;95.18
31403;BME280;18039;52.188;21.024;2022-12-11T08:35:03;77387.59;;;-141.45;94.54
31403;BME280;18039;52.188;21.024;2022-12-11T08:37:30;77385.59;;;-141.45;94.43
31403;BME280;18039;52.188;21.024;2022-12-11T08:39:57;77381.53;;;-141.45;94.64
31403;BME280;18039;52.188;21.024;2022-12-11T08:42:24;77383.56;;;-141.45;94.34
31403;BME280;18039;52.188;21.024;2022-12-11T08:44:51;77381.53;;;-141.45;94.23
31403;BME280;18039;52.188;21.024;2022-12-11T08:47:19;77383.56;;;-141.45;94.35
31403;BME280;18039;52.188;21.024;2022-12-11T08:49:46;77379.50;;;-141.45;94.88
31403;BME280;18039;52.188;21.024;2022-12-11T08:52:13;77385.59;;;-141.45;94.30
31403;BME280;18039;52.188;21.024;2022-12-11T08:54:40;77379.50;;;-141.45;94.11
31403;BME280;18039;52.188;21.024;2022-12-11T08:57:07;77367.34;;;-141.45;93.59
31403;BME280;18039;52.188;21.024;2022-12-11T08:59:34;77375.44;;;-141.45;93.88
31403;BME280;18039;52.188;21.024;2022-12-11T09:02:01;77383.56;;;-141.45;94.22
31403;BME280;18039;52.188;21.024;2022-12-11T09:04:28;77375.44;;;-141.45;94.51
31403;BME280;18039;52.188;21.024;2022-12-11T09:06:55;77363.28;;;-141.45;95.07
31403;BME280;18039;52.188;21.024;2022-12-11T09:09:22;77351.13;;;-141.45;94.41
31403;BME280;18039;52.188;21.024;2022-12-11T09:11:50;77340.97;;;-141.45;93.79
31403;BME280;18039;52.188;21.024;2022-12-11T09:14:17;77343.00;;;-141.45;93.79
31403;BME280;18039;52.188;21.024;2022-12-11T09:16:44;77351.13;;;-141.45;94.07
31403;BME280;18039;52.188;21.024;2022-12-11T09:19:13;77347.06;;;-141.45;94.84
31403;BME280;18039;52.188;21.024;2022-12-11T09:21:41;77334.91;;;-141.45;94.51
31403;BME280;18039;52.188;21.024;2022-12-11T09:24:10;77318.66;;;-141.45;94.46
31403;BME280;18039;52.188;21.024;2022-12-11T09:26:38;77320.69;;;-141.45;94.70
31403;BME280;18039;52.188;21.024;2022-12-11T09:29:06;77306.50;;;-141.45;94.01
31403;BME280;18039;52.188;21.024;2022-12-11T09:31:35;77306.50;;;-141.45;94.12
31403;BME280;18039;52.188;21.024;2022-12-11T09:34:06;77304.47;;;-141.45;94.35
31403;BME280;18039;52.188;21.024;2022-12-11T09:36:34;77298.41;;;-141.45;93.78
31403;BME280;18039;52.188;21.024;2022-12-11T09:39:03;77294.34;;;-141.45;94.41
31403;BME280;18039;52.188;21.024;2022-12-11T09:44:46;77282.19;;;-141.45;94.03
31403;BME280;18039;52.188;21.024;2022-12-11T09:47:39;77282.19;;;-141.45;93.97
31403;BME280;18039;52.188;21.024;2022-12-11T09:53:06;77278.13;;;-141.45;92.60
31403;BME280;18039;52.188;21.024;2022-12-11T09:58:32;77267.97;;;-141.45;92.96
31403;BME280;18039;52.188;21.024;2022-12-11T10:01:28;77267.97;;;-141.45;92.96
31403;BME280;18039;52.188;21.024;2022-12-11T10:06:53;77280.16;;;-141.45;92.83
31403;BME280;18039;52.188;21.024;2022-12-11T10:09:38;77270.00;;;-141.45;92.60
31403;BME280;18039;52.188;21.024;2022-12-11T10:12:16;77257.84;;;-141.45;92.37
31403;BME280;18039;52.188;21.024;2022-12-11T10:17:22;77270.00;;;-141.45;92.65
31403;BME280;18039;52.188;21.024;2022-12-11T10:19:51;77253.78;;;-141.45;91.84
31403;BME280;18039;52.188;21.024;2022-12-11T10:22:21;77257.84;;;-141.45;92.03
31403;BME280;18039;52.188;21.024;2022-12-11T10:24:56;77247.72;;;-141.45;92.98
31403;BME280;18039;52.188;21.024;2022-12-11T10:27:38;77251.75;;;-141.45;92.99
31403;BME280;18039;52.188;21.024;2022-12-11T10:35:34;77229.47;;;-141.45;93.08
31403;BME280;18039;52.188;21.024;2022-12-11T10:40:54;77209.19;;;-141.45;92.64
31403;BME280;18039;52.188;21.024;2022-12-11T10:46:01;77221.34;;;-141.45;91.77
31403;BME280;18039;52.188;21.024;2022-12-11T10:48:28;77217.28;;;-141.45;91.68
31403;BME280;18039;52.188;21.024;2022-12-11T10:50:59;77217.28;;;-141.45;92.20
31403;BME280;18039;52.188;21.024;2022-12-11T10:53:26;77205.13;;;-141.45;92.45
31403;BME280;18039;52.188;21.024;2022-12-11T10:55:55;77205.13;;;-141.45;93.04
31403;BME280;18039;52.188;21.024;2022-12-11T10:58:26;77188.91;;;-141.45;92.53
31403;BME280;18039;52.188;21.024;2022-12-11T11:01:14;77188.91;;;-141.45;92.53
31403;BME280;18039;52.188;21.024;2022-12-11T11:04:04;77180.81;;;-141.45;92.50
31403;BME280;18039;52.188;21.024;2022-12-11T11:06:32;77188.91;;;-141.45;92.88
31403;BME280;18039;52.188;21.024;2022-12-11T11:09:00;77176.75;;;-141.45;92.82
31403;BME280;18039;52.188;21.024;2022-12-11T11:11:30;77164.59;;;-141.45;93.04
31403;BME280;18039;52.188;21.024;2022-12-11T11:14:12;77168.63;;;-141.45;92.86
31403;BME280;18039;52.188;21.024;2022-12-11T11:16:43;77166.59;;;-141.45;92.61
31403;BME280;18039;52.188;21.024;2022-12-11T11:19:21;77168.63;;;-141.45;92.78
31403;BME280;18039;52.188;21.024;2022-12-11T11:21:53;77174.72;;;-141.45;92.69
31403;BME280;18039;52.188;21.024;2022-12-11T11:24:33;77172.69;;;-141.45;92.96
31403;BME280;18039;52.188;21.024;2022-12-11T11:27:02;77172.69;;;-141.45;92.70
31403;BME280;18039;52.188;21.024;2022-12-11T11:29:40;77172.69;;;-141.45;92.95
31403;BME280;18039;52.188;21.024;2022-12-11T11:32:31;77168.63;;;-141.45;92.15
31403;BME280;18039;52.188;21.024;2022-12-11T11:37:41;77152.41;;;-141.45;92.94
31403;BME280;18039;52.188;21.024;2022-12-11T11:43:00;77156.47;;;-141.45;92.22
31403;BME280;18039;52.188;21.024;2022-12-11T11:45:36;77168.63;;;-141.45;92.03
31403;BME280;18039;52.188;21.024;2022-12-11T11:50:47;77160.53;;;-141.45;91.92
31403;BME280;18039;52.188;21.024;2022-12-11T11:53:26;77152.41;;;-141.45;92.33
31403;BME280;18039;52.188;21.024;2022-12-11T11:58:38;77168.63;;;-141.45;93.11
31403;BME280;18039;52.188;21.024;2022-12-11T12:01:13;77152.41;;;-141.45;93.60
31403;BME280;18039;52.188;21.024;2022-12-11T12:03:40;77156.47;;;-141.45;93.87
31403;BME280;18039;52.188;21.024;2022-12-11T12:06:24;77152.41;;;-141.45;94.49
31403;BME280;18039;52.188;21.024;2022-12-11T12:09:41;77148.38;;;-141.45;94.05
31403;BME280;18039;52.188;21.024;2022-12-11T12:12:29;77144.31;;;-141.45;93.35
31403;BME280;18039;52.188;21.024;2022-12-11T12:20:29;77150.41;;;-141.45;92.88
31403;BME280;18039;52.188;21.024;2022-12-11T12:26:10;77164.59;;;-141.45;91.55
31403;BME280;18039;52.188;21.024;2022-12-11T12:34:11;77164.59;;;-141.45;92.77
31403;BME280;18039;52.188;21.024;2022-12-11T12:47:34;77132.16;;;-141.45;92.49
31403;BME280;18039;52.188;21.024;2022-12-11T12:50:03;77148.38;;;-141.45;93.02
31403;BME280;18039;52.188;21.024;2022-12-11T12:52:38;77152.41;;;-141.45;93.73
31403;BME280;18039;52.188;21.024;2022-12-11T12:57:57;77144.31;;;-141.45;93.98
31403;BME280;18039;52.188;21.024;2022-12-11T13:03:15;77144.31;;;-141.45;92.90
31403;BME280;18039;52.188;21.024;2022-12-11T13:05:58;77152.41;;;-141.45;92.99
31403;BME280;18039;52.188;21.024;2022-12-11T13:08:28;77160.53;;;-141.45;93.48
31403;BME280;18039;52.188;21.024;2022-12-11T13:11:05;77156.47;;;-141.45;93.78
31403;BME280;18039;52.188;21.024;2022-12-11T13:13:43;77152.41;;;-141.45;93.65
31403;BME280;18039;52.188;21.024;2022-12-11T13:16:24;77158.50;;;-141.45;93.53
31403;BME280;18039;52.188;21.024;2022-12-11T13:18:51;77144.31;;;-141.45;93.80
31403;BME280;18039;52.188;21.024;2022-12-11T13:23:52;77160.53;;;-141.45;92.01
31403;BME280;18039;52.188;21.024;2022-12-11T13:26:30;77164.59;;;-141.45;91.76
31403;BME280;18039;52.188;21.024;2022-12-11T13:28:58;77172.69;;;-141.45;91.59
31403;BME280;18039;52.188;21.024;2022-12-11T13:31:34;77168.63;;;-141.45;91.27
31403;BME280;18039;52.188;21.024;2022-12-11T13:34:22;77180.81;;;-141.45;91.97
31403;BME280;18039;52.188;21.024;2022-12-11T13:36:51;77188.91;;;-141.45;91.73
31403;BME280;18039;52.188;21.024;2022-12-11T13:39:25;77188.91;;;-141.45;91.74
31403;BME280;18039;52.188;21.024;2022-12-11T13:44:47;77190.94;;;-141.45;92.13
31403;BME280;18039;52.188;21.024;2022-12-11T13:47:16;77180.81;;;-141.45;92.06
31403;BME280;18039;52.188;21.024;2022-12-11T13:49:49;77168.63;;;-141.45;92.17
31403;BME280;18039;52.188;21.024;2022-12-11T13:52:22;77172.69;;;-141.45;92.63
31403;BME280;18039;52.188;21.024;2022-12-11T13:54:53;77160.53;;;-141.45;92.34
31403;BME280;18039;52.188;21.024;2022-12-11T13:57:23;77172.69;;;-141.45;92.20
31403;BME280;18039;52.188;21.024;2022-12-11T13:59:54;77184.84;;;-141.45;91.87
31403;BME280;18039;52.188;21.024;2022-12-11T14:02:38;77180.81;;;-141.45;92.14
31403;BME280;18039;52.188;21.024;2022-12-11T14:05:10;77188.91;;;-141.45;92.59
31403;BME280;18039;52.188;21.024;2022-12-11T14:10:22;77192.97;;;-141.45;92.79